South Passage — VHQ7804 — position and weather

sailwx.info

Track history (hours):
 
Tides and Currents Weather Stations Pressure Air Temp Water Temp Dewpoint Dewpoint Depression Visibility Wind Speed Wind Dir Waves Ship Positions

South Passage

Last reported at 2017-Nov-17 00:07 UTC. Time now 2017-Nov-20 04:16 UTC.
Position S 33°34' E 151°18'.

Length 30 m; draft 2.2 m.

Type: Sailing vessel. MMSI: 503318000.

Date/timePositionNaut miles runAvg speedWind from/ knotsBaromVisibWave heightAir tempDewpointWater temp
2017-Nov-17 00:07S 33°34' E 151°18'0 4.2
2017-Nov-17 00:00S 33°34' E 151°18'1 0.0
2017-Nov-15 00:59S 33°34' E 151°17'2 3.6
2017-Nov-15 00:19S 33°36' E 151°19'2 4.2
2017-Nov-14 23:56S 33°38' E 151°18'4 0.2
2017-Nov-14 03:12S 33°34' E 151°19'2 7.6
2017-Nov-14 03:00S 33°32' E 151°20'1 1.0
2017-Nov-14 01:35S 33°33' E 151°20'0 5.2
2017-Nov-14 01:30S 33°33' E 151°20'1 1.8
2017-Nov-14 01:00S 33°33' E 151°19'  
2017-Nov-11 16:30S 33°34' E 151°17'53 3.8
2017-Nov-11 02:30S 32°52' E 151°55'3 6.8
2017-Nov-11 01:59S 32°51' E 151°59'3 6.3
2017-Nov-11 01:30S 32°50' E 152°03'3 6.2
2017-Nov-11 01:00S 32°49' E 152°06'3 6.2
2017-Nov-11 00:30S 32°47' E 152°09'3 5.8
2017-Nov-11 00:00S 32°46' E 152°12'3 5.5
2017-Nov-10 23:30S 32°44' E 152°15'1 2.5
2017-Nov-10 23:00S 32°43' E 152°15'3 5.9
2017-Nov-10 22:30S 32°42' E 152°11'1 2.0
2017-Nov-10 22:00S 32°43' E 152°10'0 0.1
2017-Nov-10 21:30S 32°43' E 152°10'0 0.0
2017-Nov-10 21:00S 32°43' E 152°10'0 0.0
2017-Nov-10 20:30S 32°43' E 152°10'0 0.0
2017-Nov-10 20:00S 32°43' E 152°10'0 0.0
2017-Nov-10 19:30S 32°43' E 152°10'0 0.0
2017-Nov-10 18:57S 32°43' E 152°10'0 0.0
2017-Nov-10 18:30S 32°43' E 152°10'0 0.0
2017-Nov-10 18:00S 32°43' E 152°10'0 0.0
2017-Nov-10 17:24S 32°43' E 152°10'0 0.0
2017-Nov-10 16:58S 32°43' E 152°10'0 0.0
2017-Nov-10 16:28S 32°43' E 152°10'0 0.0
2017-Nov-10 15:58S 32°43' E 152°10'0 0.0
2017-Nov-10 15:28S 32°43' E 152°10'0 0.0
2017-Nov-10 14:58S 32°43' E 152°10'0 0.0
2017-Nov-10 14:28S 32°43' E 152°10'0 0.0
2017-Nov-10 13:58S 32°43' E 152°10'0 0.0
2017-Nov-10 13:28S 32°43' E 152°10'0 0.0
2017-Nov-10 12:58S 32°43' E 152°10'0 0.0
2017-Nov-10 12:28S 32°43' E 152°10'0 0.0
2017-Nov-10 11:58S 32°43' E 152°10'0 0.0
2017-Nov-10 11:28S 32°43' E 152°10'0 0.0
2017-Nov-10 10:58S 32°43' E 152°10'0 0.0
2017-Nov-10 10:25S 32°43' E 152°10'0 0.0
2017-Nov-10 09:58S 32°43' E 152°10'0 0.0
2017-Nov-10 09:28S 32°43' E 152°10'0 0.0
2017-Nov-10 08:58S 32°43' E 152°10'0 0.0
2017-Nov-10 08:28S 32°43' E 152°10'0 0.0
2017-Nov-10 07:58S 32°43' E 152°10'0 0.0
2017-Nov-10 07:28S 32°43' E 152°10'0 0.0
2017-Nov-10 06:58S 32°43' E 152°10'0 1.0
2017-Nov-10 06:30S 32°43' E 152°10'2 3.9
2017-Nov-10 06:00S 32°42' E 152°13'3 6.3
2017-Nov-10 05:30S 32°40' E 152°15'3 6.7
2017-Nov-10 05:00S 32°37' E 152°18'1 1.3
2017-Nov-10 04:28S 32°37' E 152°19'0 0.0
2017-Nov-10 03:58S 32°37' E 152°19'0 0.0
2017-Nov-10 03:28S 32°37' E 152°19'0 0.0
2017-Nov-10 02:58S 32°37' E 152°19'0 0.0
2017-Nov-10 02:28S 32°37' E 152°19'0 0.0
2017-Nov-10 01:58S 32°37' E 152°19'0 0.0
2017-Nov-10 01:28S 32°37' E 152°19'0 0.0
2017-Nov-10 00:58S 32°37' E 152°19'0 0.9
2017-Nov-10 00:30S 32°37' E 152°18'3 5.6
2017-Nov-10 00:00S 32°39' E 152°16'3 6.6
2017-Nov-09 23:30S 32°42' E 152°13'2 4.3
2017-Nov-09 23:00S 32°42' E 152°11'1 2.6
2017-Nov-09 22:30S 32°42' E 152°09'1 2.4
2017-Nov-09 22:00S 32°43' E 152°08'0 0.3
2017-Nov-09 21:29S 32°43' E 152°08'0 0.0
2017-Nov-09 20:59S 32°43' E 152°08'0 0.0
2017-Nov-09 20:29S 32°43' E 152°08'0 0.0
2017-Nov-09 19:59S 32°43' E 152°08'0 0.0
2017-Nov-09 19:29S 32°43' E 152°08'0 0.0
2017-Nov-09 18:59S 32°43' E 152°08'0 0.0
2017-Nov-09 18:29S 32°43' E 152°08'0 0.0
2017-Nov-09 17:59S 32°43' E 152°08'0 0.0
2017-Nov-09 17:29S 32°43' E 152°08'0 0.0
2017-Nov-09 16:59S 32°43' E 152°08'0 0.0
2017-Nov-09 16:29S 32°43' E 152°08'0 0.0
2017-Nov-09 15:59S 32°43' E 152°08'0 0.1
2017-Nov-09 15:29S 32°43' E 152°08'0 0.0
2017-Nov-09 14:59S 32°43' E 152°08'0 0.0
2017-Nov-09 14:29S 32°43' E 152°08'0 0.0
2017-Nov-09 13:59S 32°43' E 152°08'0 0.0
2017-Nov-09 13:29S 32°43' E 152°08'0 0.0
2017-Nov-09 12:59S 32°43' E 152°08'0 0.0
2017-Nov-09 12:29S 32°43' E 152°08'0 0.0
2017-Nov-09 11:59S 32°43' E 152°08'0 0.0
2017-Nov-09 11:29S 32°43' E 152°08'0 0.1
2017-Nov-09 10:59S 32°43' E 152°08'0 0.0
2017-Nov-09 10:29S 32°43' E 152°08'0 0.0
2017-Nov-09 09:59S 32°43' E 152°08'0 0.0
2017-Nov-09 09:29S 32°43' E 152°08'0 0.0
2017-Nov-09 08:59S 32°43' E 152°08'0 0.0
2017-Nov-09 08:29S 32°43' E 152°08'0 0.0
2017-Nov-09 07:59S 32°43' E 152°08'0 0.0
2017-Nov-09 07:29S 32°43' E 152°08'0 0.0
2017-Nov-09 06:59S 32°43' E 152°08'0 0.0
2017-Nov-09 06:29S 32°43' E 152°08'1 1.9
2017-Nov-09 06:00S 32°43' E 152°09'2 3.1
2017-Nov-09 05:30S 32°42' E 152°11'1 2.3
2017-Nov-09 05:00S 32°43' E 152°12'2 3.4
2017-Nov-09 04:30S 32°45' E 152°13'1 2.8
2017-Nov-09 04:00S 32°45' E 152°11'1 2.8
2017-Nov-09 03:30S 32°46' E 152°10'3 5.7
2017-Nov-09 03:00S 32°48' E 152°07'3 5.7
2017-Nov-09 02:30S 32°49' E 152°04'3 6.1
2017-Nov-09 02:00S 32°50' E 152°01'56 1.8
2017-Nov-07 18:26S 33°34' E 151°19'2 4.2
2017-Nov-07 18:00S 33°34' E 151°17'0 0.0
2017-Nov-07 03:17S 33°34' E 151°17'  
Track history (hours):
 
Tides and Currents Weather Stations Pressure Air Temp Water Temp Dewpoint Dewpoint Depression Visibility Wind Speed Wind Dir Waves Ship Positions

South Passage

Last reported at 2017-Nov-17 00:07 UTC. Time now 2017-Nov-20 04:16 UTC.
Position S 33°34' E 151°18'.

Length 30 m; draft 2.2 m.

Type: Sailing vessel. MMSI: 503318000.

Date/timePositionNaut miles runAvg speedWind from/ knotsBaromVisibWave heightAir tempDewpointWater temp
2017-Nov-17 00:07S 33°34' E 151°18'0 4.2
2017-Nov-17 00:00S 33°34' E 151°18'1 0.0
2017-Nov-15 00:59S 33°34' E 151°17'2 3.6
2017-Nov-15 00:19S 33°36' E 151°19'2 4.2
2017-Nov-14 23:56S 33°38' E 151°18'4 0.2
2017-Nov-14 03:12S 33°34' E 151°19'2 7.6
2017-Nov-14 03:00S 33°32' E 151°20'1 1.0
2017-Nov-14 01:35S 33°33' E 151°20'0 5.2
2017-Nov-14 01:30S 33°33' E 151°20'1 1.8
2017-Nov-14 01:00S 33°33' E 151°19'  
2017-Nov-11 16:30S 33°34' E 151°17'53 3.8
2017-Nov-11 02:30S 32°52' E 151°55'3 6.8
2017-Nov-11 01:59S 32°51' E 151°59'3 6.3
2017-Nov-11 01:30S 32°50' E 152°03'3 6.2
2017-Nov-11 01:00S 32°49' E 152°06'3 6.2
2017-Nov-11 00:30S 32°47' E 152°09'3 5.8
2017-Nov-11 00:00S 32°46' E 152°12'3 5.5
2017-Nov-10 23:30S 32°44' E 152°15'1 2.5
2017-Nov-10 23:00S 32°43' E 152°15'3 5.9
2017-Nov-10 22:30S 32°42' E 152°11'1 2.0
2017-Nov-10 22:00S 32°43' E 152°10'0 0.1
2017-Nov-10 21:30S 32°43' E 152°10'0 0.0
2017-Nov-10 21:00S 32°43' E 152°10'0 0.0
2017-Nov-10 20:30S 32°43' E 152°10'0 0.0
2017-Nov-10 20:00S 32°43' E 152°10'0 0.0
2017-Nov-10 19:30S 32°43' E 152°10'0 0.0
2017-Nov-10 18:57S 32°43' E 152°10'0 0.0
2017-Nov-10 18:30S 32°43' E 152°10'0 0.0
2017-Nov-10 18:00S 32°43' E 152°10'0 0.0
2017-Nov-10 17:24S 32°43' E 152°10'0 0.0
2017-Nov-10 16:58S 32°43' E 152°10'0 0.0
2017-Nov-10 16:28S 32°43' E 152°10'0 0.0
2017-Nov-10 15:58S 32°43' E 152°10'0 0.0
2017-Nov-10 15:28S 32°43' E 152°10'0 0.0
2017-Nov-10 14:58S 32°43' E 152°10'0 0.0
2017-Nov-10 14:28S 32°43' E 152°10'0 0.0
2017-Nov-10 13:58S 32°43' E 152°10'0 0.0
2017-Nov-10 13:28S 32°43' E 152°10'0 0.0
2017-Nov-10 12:58S 32°43' E 152°10'0 0.0
2017-Nov-10 12:28S 32°43' E 152°10'0 0.0
2017-Nov-10 11:58S 32°43' E 152°10'0 0.0
2017-Nov-10 11:28S 32°43' E 152°10'0 0.0
2017-Nov-10 10:58S 32°43' E 152°10'0 0.0
2017-Nov-10 10:25S 32°43' E 152°10'0 0.0
2017-Nov-10 09:58S 32°43' E 152°10'0 0.0
2017-Nov-10 09:28S 32°43' E 152°10'0 0.0
2017-Nov-10 08:58S 32°43' E 152°10'0 0.0
2017-Nov-10 08:28S 32°43' E 152°10'0 0.0
2017-Nov-10 07:58S 32°43' E 152°10'0 0.0
2017-Nov-10 07:28S 32°43' E 152°10'0 0.0
2017-Nov-10 06:58S 32°43' E 152°10'0 1.0
2017-Nov-10 06:30S 32°43' E 152°10'2 3.9
2017-Nov-10 06:00S 32°42' E 152°13'3 6.3
2017-Nov-10 05:30S 32°40' E 152°15'3 6.7
2017-Nov-10 05:00S 32°37' E 152°18'1 1.3
2017-Nov-10 04:28S 32°37' E 152°19'0 0.0
2017-Nov-10 03:58S 32°37' E 152°19'0 0.0
2017-Nov-10 03:28S 32°37' E 152°19'0 0.0
2017-Nov-10 02:58S 32°37' E 152°19'0 0.0
2017-Nov-10 02:28S 32°37' E 152°19'0 0.0
2017-Nov-10 01:58S 32°37' E 152°19'0 0.0
2017-Nov-10 01:28S 32°37' E 152°19'0 0.0
2017-Nov-10 00:58S 32°37' E 152°19'0 0.9
2017-Nov-10 00:30S 32°37' E 152°18'3 5.6
2017-Nov-10 00:00S 32°39' E 152°16'3 6.6
2017-Nov-09 23:30S 32°42' E 152°13'2 4.3
2017-Nov-09 23:00S 32°42' E 152°11'1 2.6
2017-Nov-09 22:30S 32°42' E 152°09'1 2.4
2017-Nov-09 22:00S 32°43' E 152°08'0 0.3
2017-Nov-09 21:29S 32°43' E 152°08'0 0.0
2017-Nov-09 20:59S 32°43' E 152°08'0 0.0
2017-Nov-09 20:29S 32°43' E 152°08'0 0.0
2017-Nov-09 19:59S 32°43' E 152°08'0 0.0
2017-Nov-09 19:29S 32°43' E 152°08'0 0.0
2017-Nov-09 18:59S 32°43' E 152°08'0 0.0
2017-Nov-09 18:29S 32°43' E 152°08'0 0.0
2017-Nov-09 17:59S 32°43' E 152°08'0 0.0
2017-Nov-09 17:29S 32°43' E 152°08'0 0.0
2017-Nov-09 16:59S 32°43' E 152°08'0 0.0
2017-Nov-09 16:29S 32°43' E 152°08'0 0.0
2017-Nov-09 15:59S 32°43' E 152°08'0 0.1
2017-Nov-09 15:29S 32°43' E 152°08'0 0.0
2017-Nov-09 14:59S 32°43' E 152°08'0 0.0
2017-Nov-09 14:29S 32°43' E 152°08'0 0.0
2017-Nov-09 13:59S 32°43' E 152°08'0 0.0
2017-Nov-09 13:29S 32°43' E 152°08'0 0.0
2017-Nov-09 12:59S 32°43' E 152°08'0 0.0
2017-Nov-09 12:29S 32°43' E 152°08'0 0.0
2017-Nov-09 11:59S 32°43' E 152°08'0 0.0
2017-Nov-09 11:29S 32°43' E 152°08'0 0.1
2017-Nov-09 10:59S 32°43' E 152°08'0 0.0
2017-Nov-09 10:29S 32°43' E 152°08'0 0.0
2017-Nov-09 09:59S 32°43' E 152°08'0 0.0
2017-Nov-09 09:29S 32°43' E 152°08'0 0.0
2017-Nov-09 08:59S 32°43' E 152°08'0 0.0
2017-Nov-09 08:29S 32°43' E 152°08'0 0.0
2017-Nov-09 07:59S 32°43' E 152°08'0 0.0
2017-Nov-09 07:29S 32°43' E 152°08'0 0.0
2017-Nov-09 06:59S 32°43' E 152°08'0 0.0
2017-Nov-09 06:29S 32°43' E 152°08'1 1.9
2017-Nov-09 06:00S 32°43' E 152°09'2 3.1
2017-Nov-09 05:30S 32°42' E 152°11'1 2.3
2017-Nov-09 05:00S 32°43' E 152°12'2 3.4
2017-Nov-09 04:30S 32°45' E 152°13'1 2.8
2017-Nov-09 04:00S 32°45' E 152°11'1 2.8
2017-Nov-09 03:30S 32°46' E 152°10'3 5.7
2017-Nov-09 03:00S 32°48' E 152°07'3 5.7
2017-Nov-09 02:30S 32°49' E 152°04'3 6.1
2017-Nov-09 02:00S 32°50' E 152°01'56 1.8
2017-Nov-07 18:26S 33°34' E 151°19'2 4.2
2017-Nov-07 18:00S 33°34' E 151°17'0 0.0
2017-Nov-07 03:17S 33°34' E 151°17'  

Dump ship's entire track history